Time,TemperatureF,DewpointF,PressureIn,WindDirection,WindDirectionDegrees,WindSpeedMPH,WindSpeedGustMPH,Humidity,HourlyPrecipIn,Conditions,Clouds,dailyrainin,SoftwareType,DateUTC
2013-04-14 00:06:00,55.8,53.8,29.92,ENE,69,0.0,0.0,93,0.00,,,0.00,Wunderground v.1.13,2013-04-14 07:06:00,
2013-04-14 00:11:00,55.8,53.8,29.92,ENE,69,0.0,0.0,93,0.00,,,0.00,Wunderground v.1.13,2013-04-14 07:11:00,
2013-04-14 00:21:00,55.8,53.8,29.92,ENE,69,0.0,0.0,93,0.00,,,0.00,Wunderground v.1.13,2013-04-14 07:21:00,
2013-04-14 00:31:00,55.8,53.8,29.93,ENE,69,0.0,0.0,93,0.00,,,0.00,Wunderground v.1.13,2013-04-14 07:31:00,
2013-04-14 00:46:00,55.9,53.9,29.92,ENE,69,0.0,0.0,93,0.00,,,0.00,Wunderground v.1.13,2013-04-14 07:46:00,
2013-04-14 00:51:00,55.9,53.9,29.92,ENE,69,0.0,0.0,93,0.00,,,0.00,Wunderground v.1.13,2013-04-14 07:51:00,
2013-04-14 01:01:00,56.0,54.0,29.92,ENE,69,0.0,0.0,93,0.00,,,0.00,Wunderground v.1.13,2013-04-14 08:01:00,
2013-04-14 01:06:00,55.9,53.9,29.92,ENE,69,0.0,0.0,93,0.00,,,0.00,Wunderground v.1.13,2013-04-14 08:06:00,
2013-04-14 01:11:00,56.0,54.0,29.92,ENE,69,0.0,0.0,93,0.00,,,0.00,Wunderground v.1.13,2013-04-14 08:11:00,
2013-04-14 01:21:00,55.9,53.9,29.92,ENE,69,0.0,0.0,93,0.00,,,0.00,Wunderground v.1.13,2013-04-14 08:21:00,
2013-04-14 01:31:00,56.0,54.0,29.91,ENE,69,0.0,0.0,93,0.00,,,0.00,Wunderground v.1.13,2013-04-14 08:31:00,
2013-04-14 01:36:00,56.0,54.0,29.91,ENE,69,0.0,0.0,93,0.00,,,0.00,Wunderground v.1.13,2013-04-14 08:36:00,
2013-04-14 01:41:00,56.0,54.0,29.91,ENE,69,0.0,0.0,93,0.00,,,0.00,Wunderground v.1.13,2013-04-14 08:41:00,
2013-04-14 01:51:00,56.1,54.1,29.91,ENE,69,0.0,0.0,93,0.00,,,0.00,Wunderground v.1.13,2013-04-14 08:51:00,
2013-04-14 01:56:00,56.0,54.0,29.91,ENE,69,0.0,0.0,93,0.00,,,0.00,Wunderground v.1.13,2013-04-14 08:56:00,
2013-04-14 02:01:00,56.0,54.0,29.91,ENE,69,0.0,0.0,93,0.00,,,0.00,Wunderground v.1.13,2013-04-14 09:01:00,
2013-04-14 02:11:00,56.0,54.0,29.91,ENE,69,0.0,0.0,93,0.00,,,0.00,Wunderground v.1.13,2013-04-14 09:11:00,
2013-04-14 02:16:00,56.0,54.0,29.91,ENE,69,0.0,0.0,93,0.00,,,0.00,Wunderground v.1.13,2013-04-14 09:16:00,
2013-04-14 02:21:00,56.1,54.1,29.90,ENE,69,0.0,0.0,93,0.00,,,0.00,Wunderground v.1.13,2013-04-14 09:21:00,
2013-04-14 02:31:00,56.1,54.1,29.90,ENE,69,0.0,0.0,93,0.00,,,0.00,Wunderground v.1.13,2013-04-14 09:31:00,
2013-04-14 02:41:00,56.0,54.0,29.90,ENE,69,0.0,0.0,93,0.00,,,0.00,Wunderground v.1.13,2013-04-14 09:41:00,
2013-04-14 02:51:00,56.0,54.0,29.90,ENE,69,0.0,0.0,93,0.00,,,0.00,Wunderground v.1.13,2013-04-14 09:51:00,
2013-04-14 03:01:00,56.0,54.0,29.90,ENE,69,0.0,0.0,93,0.00,,,0.00,Wunderground v.1.13,2013-04-14 10:01:00,
2013-04-14 03:11:00,56.0,54.0,29.90,ENE,69,0.0,0.0,93,0.00,,,0.00,Wunderground v.1.13,2013-04-14 10:11:00,
2013-04-14 03:26:00,56.0,54.0,29.90,ENE,69,0.0,0.0,93,0.00,,,0.00,Wunderground v.1.13,2013-04-14 10:26:00,
2013-04-14 03:31:00,56.0,54.0,29.90,ENE,69,0.0,0.0,93,0.00,,,0.00,Wunderground v.1.13,2013-04-14 10:31:00,
2013-04-14 03:41:00,55.9,53.9,29.90,ENE,69,0.0,0.0,93,0.00,,,0.00,Wunderground v.1.13,2013-04-14 10:41:00,
2013-04-14 03:51:00,55.9,54.2,29.90,ENE,69,0.0,0.0,94,0.00,,,0.00,Wunderground v.1.13,2013-04-14 10:51:00,
2013-04-14 04:06:00,55.7,53.7,29.90,ENE,69,0.0,0.0,93,0.00,,,0.00,Wunderground v.1.13,2013-04-14 11:06:00,
2013-04-14 04:11:00,55.6,53.6,29.90,ENE,69,0.0,0.0,93,0.00,,,0.00,Wunderground v.1.13,2013-04-14 11:11:00,
2013-04-14 04:21:00,55.5,53.5,29.90,ENE,69,0.0,0.0,93,0.00,,,0.00,Wunderground v.1.13,2013-04-14 11:21:00,
2013-04-14 04:36:00,55.5,53.8,29.90,ENE,69,0.0,0.0,94,0.00,,,0.00,Wunderground v.1.13,2013-04-14 11:36:00,
2013-04-14 04:41:00,55.5,53.8,29.89,ENE,69,0.0,0.0,94,0.00,,,0.00,Wunderground v.1.13,2013-04-14 11:41:00,
2013-04-14 04:56:00,55.5,53.8,29.89,ENE,69,0.0,0.0,94,0.00,,,0.00,Wunderground v.1.13,2013-04-14 11:56:00,
2013-04-14 05:01:00,55.5,53.8,29.89,ENE,69,0.0,0.0,94,0.00,,,0.00,Wunderground v.1.13,2013-04-14 12:01:00,
2013-04-14 05:11:00,55.6,53.9,29.89,ENE,69,0.0,0.0,94,0.00,,,0.00,Wunderground v.1.13,2013-04-14 12:11:00,
2013-04-14 05:26:00,55.5,53.8,29.89,ENE,69,0.0,0.0,94,0.00,,,0.00,Wunderground v.1.13,2013-04-14 12:26:00,
2013-04-14 05:31:00,55.5,53.8,29.89,ENE,69,0.0,0.0,94,0.00,,,0.00,Wunderground v.1.13,2013-04-14 12:31:00,
2013-04-14 05:36:00,55.5,53.8,29.89,ENE,69,0.0,0.0,94,0.00,,,0.00,Wunderground v.1.13,2013-04-14 12:36:00,
2013-04-14 05:41:00,55.5,53.8,29.89,ENE,69,0.0,0.0,94,0.00,,,0.00,Wunderground v.1.13,2013-04-14 12:41:00,
2013-04-14 05:46:00,55.6,53.9,29.89,ENE,69,0.0,0.0,94,0.00,,,0.00,Wunderground v.1.13,2013-04-14 12:46:00,
2013-04-14 05:51:00,55.6,53.9,29.89,ENE,69,0.0,0.0,94,0.00,,,0.00,Wunderground v.1.13,2013-04-14 12:51:00,
2013-04-14 06:01:00,55.6,53.9,29.89,ENE,69,0.0,0.0,94,0.00,,,0.00,Wunderground v.1.13,2013-04-14 13:01:00,
2013-04-14 06:11:00,55.6,53.9,29.89,ENE,69,0.0,0.0,94,0.00,,,0.00,Wunderground v.1.13,2013-04-14 13:11:00,
2013-04-14 06:21:00,55.6,53.9,29.89,ENE,69,0.0,0.0,94,0.00,,,0.00,Wunderground v.1.13,2013-04-14 13:21:00,
2013-04-14 06:31:00,55.6,53.9,29.89,ENE,69,0.0,0.0,94,0.00,,,0.00,Wunderground v.1.13,2013-04-14 13:31:00,
2013-04-14 06:36:00,55.6,53.9,29.90,ENE,69,0.0,0.0,94,0.00,,,0.00,Wunderground v.1.13,2013-04-14 13:36:00,
2013-04-14 06:46:00,55.6,53.9,29.90,ENE,69,0.0,0.0,94,0.00,,,0.00,Wunderground v.1.13,2013-04-14 13:46:00,
2013-04-14 06:51:00,55.6,53.9,29.90,ENE,69,0.0,0.0,94,0.00,,,0.00,Wunderground v.1.13,2013-04-14 13:51:00,
2013-04-14 06:56:00,55.6,53.9,29.90,ENE,69,0.0,0.0,94,0.00,,,0.00,Wunderground v.1.13,2013-04-14 13:56:00,
2013-04-14 07:06:00,55.7,54.0,29.90,ENE,69,0.0,0.0,94,0.00,,,0.00,Wunderground v.1.13,2013-04-14 14:06:00,
2013-04-14 07:11:00,55.8,54.1,29.90,ENE,69,0.0,0.0,94,0.00,,,0.00,Wunderground v.1.13,2013-04-14 14:11:00,
2013-04-14 07:21:00,55.9,54.2,29.90,ENE,69,0.0,0.0,94,0.00,,,0.00,Wunderground v.1.13,2013-04-14 14:21:00,
2013-04-14 07:31:00,55.8,54.1,29.90,ENE,69,0.0,0.0,94,0.00,,,0.00,Wunderground v.1.13,2013-04-14 14:31:00,
2013-04-14 07:41:00,55.9,54.2,29.90,ENE,69,0.0,0.0,94,0.00,,,0.00,Wunderground v.1.13,2013-04-14 14:41:00,
2013-04-14 07:51:00,55.8,54.1,29.91,ENE,69,0.0,0.0,94,0.00,,,0.00,Wunderground v.1.13,2013-04-14 14:51:00,
2013-04-14 08:06:00,55.8,54.1,29.91,ENE,69,0.0,0.0,94,0.00,,,0.00,Wunderground v.1.13,2013-04-14 15:06:00,
2013-04-14 08:11:00,55.8,54.1,29.91,ENE,69,0.0,0.0,94,0.00,,,0.00,Wunderground v.1.13,2013-04-14 15:11:00,
2013-04-14 08:21:00,56.1,54.7,29.91,ENE,69,0.0,0.0,95,0.00,,,0.00,Wunderground v.1.13,2013-04-14 15:21:00,
2013-04-14 08:31:00,56.3,54.9,29.91,ENE,69,0.0,0.0,95,0.00,,,0.00,Wunderground v.1.13,2013-04-14 15:31:00,
2013-04-14 08:41:00,56.6,55.2,29.91,ENE,69,0.0,3.0,95,0.00,,,0.00,Wunderground v.1.13,2013-04-14 15:41:00,
2013-04-14 08:46:00,56.5,55.1,29.91,ENE,69,0.0,0.0,95,0.00,,,0.00,Wunderground v.1.13,2013-04-14 15:46:00,
2013-04-14 08:56:00,56.5,55.1,29.92,ENE,69,0.0,0.0,95,0.00,,,0.00,Wunderground v.1.13,2013-04-14 15:56:00,
2013-04-14 09:01:00,56.7,55.0,29.92,ENE,69,0.0,0.0,94,0.00,,,0.00,Wunderground v.1.13,2013-04-14 16:01:00,
2013-04-14 09:06:00,56.7,55.0,29.92,ENE,69,0.0,0.0,94,0.00,,,0.00,Wunderground v.1.13,2013-04-14 16:06:00,
2013-04-14 09:11:00,56.7,55.0,29.92,ENE,69,0.0,0.0,94,0.00,,,0.00,Wunderground v.1.13,2013-04-14 16:11:00,
2013-04-14 09:21:00,56.6,54.9,29.92,ENE,69,0.0,0.0,94,0.00,,,0.00,Wunderground v.1.13,2013-04-14 16:21:00,
2013-04-14 09:26:00,56.8,55.1,29.92,ENE,69,0.0,0.0,94,0.00,,,0.00,Wunderground v.1.13,2013-04-14 16:26:00,
2013-04-14 09:36:00,56.6,54.9,29.93,ENE,68,1.0,1.0,94,0.00,,,0.00,Wunderground v.1.13,2013-04-14 16:36:00,
2013-04-14 09:41:00,56.6,54.9,29.93,ENE,68,1.0,1.0,94,0.00,,,0.00,Wunderground v.1.13,2013-04-14 16:41:00,
2013-04-14 09:46:00,56.4,54.7,29.93,ENE,67,2.0,2.0,94,0.00,,,0.00,Wunderground v.1.13,2013-04-14 16:46:00,
2013-04-14 09:56:00,56.6,54.9,29.93,ENE,65,1.0,4.0,94,0.00,,,0.00,Wunderground v.1.13,2013-04-14 16:56:00,
2013-04-14 10:01:00,56.3,54.6,29.93,ENE,65,2.0,2.0,94,0.00,,,0.00,Wunderground v.1.13,2013-04-14 17:01:00,
2013-04-14 10:11:00,56.3,54.6,29.93,ENE,65,1.0,1.0,94,0.00,,,0.00,Wunderground v.1.13,2013-04-14 17:11:00,
2013-04-14 10:26:00,56.4,54.4,29.93,ENE,64,1.0,1.0,93,0.00,,,0.00,Wunderground v.1.13,2013-04-14 17:26:00,
2013-04-14 10:31:00,56.2,54.2,29.93,ENE,65,1.0,1.0,93,0.00,,,0.00,Wunderground v.1.13,2013-04-14 17:31:00,
2013-04-14 10:41:00,56.6,54.6,29.94,ENE,63,1.0,1.0,93,0.00,,,0.00,Wunderground v.1.13,2013-04-14 17:41:00,
2013-04-14 10:51:00,56.5,54.5,29.94,ENE,65,1.0,1.0,93,0.00,,,0.00,Wunderground v.1.13,2013-04-14 17:51:00,
2013-04-14 10:56:00,56.7,54.7,29.94,ENE,64,0.0,2.0,93,0.00,,,0.00,Wunderground v.1.13,2013-04-14 17:56:00,
2013-04-14 11:06:00,56.8,54.8,29.94,ENE,63,1.0,3.0,93,0.00,,,0.00,Wunderground v.1.13,2013-04-14 18:06:00,
2013-04-14 11:26:00,56.9,54.9,29.93,ENE,70,1.0,1.0,93,0.00,,,0.00,Wunderground v.1.13,2013-04-14 18:26:00,
2013-04-14 11:31:00,57.2,55.2,29.93,ESE,104,1.0,2.0,93,0.00,,,0.00,Wunderground v.1.13,2013-04-14 18:31:00,
2013-04-14 11:36:00,57.6,55.3,29.93,ESE,103,1.0,1.0,92,0.00,,,0.00,Wunderground v.1.13,2013-04-14 18:36:00,
2013-04-14 11:41:00,57.6,55.3,29.93,East,96,2.0,5.0,92,0.00,,,0.00,Wunderground v.1.13,2013-04-14 18:41:00,
2013-04-14 11:51:00,58.0,55.4,29.93,ENE,67,2.0,3.0,91,0.00,,,0.00,Wunderground v.1.13,2013-04-14 18:51:00,
2013-04-14 12:01:00,58.5,55.3,29.93,ENE,63,1.0,6.0,89,0.00,,,0.00,Wunderground v.1.13,2013-04-14 19:01:00,
2013-04-14 12:06:00,58.3,55.1,29.93,ENE,58,2.0,2.0,89,0.00,,,0.00,Wunderground v.1.13,2013-04-14 19:06:00,
2013-04-14 12:26:00,59.6,55.7,29.92,ENE,57,1.0,1.0,87,0.00,,,0.00,Wunderground v.1.13,2013-04-14 19:26:00,
2013-04-14 12:31:00,60.0,55.8,29.92,ENE,61,2.0,2.0,86,0.00,,,0.00,Wunderground v.1.13,2013-04-14 19:31:00,
2013-04-14 12:36:00,60.5,56.0,29.92,ENE,61,1.0,4.0,85,0.00,,,0.00,Wunderground v.1.13,2013-04-14 19:36:00,
2013-04-14 12:41:00,60.6,55.7,29.92,East,79,1.0,1.0,84,0.00,,,0.00,Wunderground v.1.13,2013-04-14 19:41:00,
2013-04-14 12:56:00,60.9,55.4,29.92,ENE,73,2.0,5.0,82,0.00,,,0.00,Wunderground v.1.13,2013-04-14 19:56:00,
2013-04-14 13:01:00,60.9,55.0,29.92,ENE,67,2.0,2.0,81,0.00,,,0.00,Wunderground v.1.13,2013-04-14 20:01:00,
2013-04-14 13:11:00,60.8,55.3,29.92,ENE,57,2.0,2.0,82,0.00,,,0.00,Wunderground v.1.13,2013-04-14 20:11:00,
2013-04-14 13:21:00,61.0,55.8,29.91,NE,56,1.0,1.0,83,0.00,,,0.00,Wunderground v.1.13,2013-04-14 20:21:00,
2013-04-14 13:31:00,61.4,55.9,29.91,ENE,57,0.0,0.0,82,0.00,,,0.00,Wunderground v.1.13,2013-04-14 20:31:00,
2013-04-14 13:36:00,61.7,55.8,29.91,ENE,57,0.0,4.0,81,0.00,,,0.00,Wunderground v.1.13,2013-04-14 20:36:00,
2013-04-14 13:41:00,61.1,54.9,29.91,ENE,57,1.0,4.0,80,0.00,,,0.00,Wunderground v.1.13,2013-04-14 20:41:00,
2013-04-14 13:51:00,60.5,55.0,29.91,ENE,66,3.0,3.0,82,0.00,,,0.00,Wunderground v.1.13,2013-04-14 20:51:00,
2013-04-14 13:56:00,60.2,55.0,29.91,ENE,65,3.0,3.0,83,0.00,,,0.00,Wunderground v.1.13,2013-04-14 20:56:00,
2013-04-14 14:01:00,60.5,55.3,29.91,ENE,60,2.0,2.0,83,0.00,,,0.00,Wunderground v.1.13,2013-04-14 21:01:00,
2013-04-14 14:21:00,60.3,54.4,29.90,ENE,59,2.0,2.0,81,0.00,,,0.00,Wunderground v.1.13,2013-04-14 21:21:00,
2013-04-14 14:26:00,60.7,55.2,29.90,ENE,58,2.0,2.0,82,0.00,,,0.00,Wunderground v.1.13,2013-04-14 21:26:00,
2013-04-14 14:31:00,60.6,54.7,29.90,ENE,59,1.0,1.0,81,0.00,,,0.00,Wunderground v.1.13,2013-04-14 21:31:00,
2013-04-14 14:41:00,60.5,54.6,29.90,ENE,59,1.0,1.0,81,0.00,,,0.00,Wunderground v.1.13,2013-04-14 21:41:00,
2013-04-14 14:51:00,60.7,54.8,29.90,ENE,60,1.0,1.0,81,0.00,,,0.00,Wunderground v.1.13,2013-04-14 21:51:00,
2013-04-14 15:01:00,60.4,54.2,29.90,NE,55,2.0,5.0,80,0.00,,,0.00,Wunderground v.1.13,2013-04-14 22:01:00,
2013-04-14 15:11:00,59.9,54.4,29.89,East,80,2.0,7.0,82,0.00,,,0.00,Wunderground v.1.13,2013-04-14 22:11:00,
2013-04-14 15:21:00,60.2,54.7,29.89,ENE,63,2.0,2.0,82,0.00,,,0.00,Wunderground v.1.13,2013-04-14 22:21:00,
2013-04-14 16:16:00,59.4,53.9,29.88,ENE,67,3.0,3.0,82,0.00,,,0.00,Wunderground v.1.13,2013-04-14 23:16:00,
2013-04-14 16:21:00,59.4,54.2,29.88,ENE,71,2.0,2.0,83,0.00,,,0.00,Wunderground v.1.13,2013-04-14 23:21:00,
2013-04-14 16:31:00,59.5,54.0,29.88,East,90,2.0,2.0,82,0.00,,,0.00,Wunderground v.1.13,2013-04-14 23:31:00,
2013-04-14 16:46:00,59.4,54.2,29.88,East,88,3.0,3.0,83,0.00,,,0.00,Wunderground v.1.13,2013-04-14 23:46:00,
2013-04-14 17:06:00,59.3,54.1,29.88,East,81,3.0,5.0,83,0.00,,,0.00,Wunderground v.1.13,2013-04-15 00:06:00,
2013-04-14 17:11:00,59.2,54.4,29.87,ENE,63,4.0,4.0,84,0.00,,,0.00,Wunderground v.1.13,2013-04-15 00:11:00,
2013-04-14 17:21:00,58.8,54.0,29.87,East,88,4.0,4.0,84,0.00,,,0.00,Wunderground v.1.13,2013-04-15 00:21:00,
2013-04-14 17:31:00,58.9,54.1,29.87,East,83,2.0,2.0,84,0.00,,,0.00,Wunderground v.1.13,2013-04-15 00:31:00,
2013-04-14 17:36:00,58.9,54.1,29.87,East,92,2.0,2.0,84,0.00,,,0.00,Wunderground v.1.13,2013-04-15 00:36:00,
2013-04-14 17:41:00,59.1,54.3,29.87,ENE,69,2.0,2.0,84,0.00,,,0.00,Wunderground v.1.13,2013-04-15 00:41:00,
2013-04-14 17:56:00,58.9,54.4,29.88,East,94,1.0,3.0,85,0.00,,,0.00,Wunderground v.1.13,2013-04-15 00:56:00,
2013-04-14 18:01:00,58.7,54.2,29.88,East,95,1.0,1.0,85,0.00,,,0.00,Wunderground v.1.13,2013-04-15 01:01:00,
2013-04-14 18:11:00,58.1,53.6,29.88,East,81,2.0,5.0,85,0.00,,,0.00,Wunderground v.1.13,2013-04-15 01:11:00,
2013-04-14 18:16:00,57.9,53.4,29.88,East,81,1.0,1.0,85,0.00,,,0.00,Wunderground v.1.13,2013-04-15 01:16:00,
2013-04-14 18:21:00,57.8,53.6,29.88,ENE,78,1.0,1.0,86,0.00,,,0.00,Wunderground v.1.13,2013-04-15 01:21:00,
2013-04-14 18:31:00,57.6,53.1,29.88,ENE,68,1.0,1.0,85,0.00,,,0.00,Wunderground v.1.13,2013-04-15 01:31:00,
2013-04-14 18:41:00,57.4,52.9,29.88,ENE,67,0.0,0.0,85,0.00,,,0.00,Wunderground v.1.13,2013-04-15 01:41:00,
2013-04-14 18:46:00,57.4,52.9,29.88,ENE,65,0.0,0.0,85,0.00,,,0.00,Wunderground v.1.13,2013-04-15 01:46:00,
2013-04-14 18:51:00,57.4,52.9,29.88,ENE,64,1.0,1.0,85,0.00,,,0.00,Wunderground v.1.13,2013-04-15 01:51:00,
2013-04-14 19:01:00,57.3,52.8,29.88,ENE,64,0.0,0.0,85,0.00,,,0.00,Wunderground v.1.13,2013-04-15 02:01:00,
2013-04-14 19:11:00,57.2,52.7,29.89,ENE,65,0.0,0.0,85,0.00,,,0.00,Wunderground v.1.13,2013-04-15 02:11:00,
2013-04-14 19:16:00,57.2,52.7,29.88,ENE,64,0.0,0.0,85,0.00,,,0.00,Wunderground v.1.13,2013-04-15 02:16:00,
2013-04-14 19:26:00,57.4,52.9,29.89,ENE,64,0.0,0.0,85,0.00,,,0.00,Wunderground v.1.13,2013-04-15 02:26:00,
2013-04-14 19:46:00,57.2,52.7,29.89,ENE,64,0.0,0.0,85,0.00,,,0.00,Wunderground v.1.13,2013-04-15 02:46:00,
2013-04-14 19:51:00,57.3,52.8,29.89,ENE,64,0.0,0.0,85,0.00,,,0.00,Wunderground v.1.13,2013-04-15 02:51:00,
2013-04-14 20:01:00,57.4,52.9,29.89,ENE,64,0.0,0.0,85,0.00,,,0.00,Wunderground v.1.13,2013-04-15 03:01:00,
2013-04-14 20:21:00,57.8,53.0,29.90,ENE,65,1.0,1.0,84,0.00,,,0.00,Wunderground v.1.13,2013-04-15 03:21:00,
2013-04-14 20:31:00,57.8,53.0,29.90,ENE,66,0.0,0.0,84,0.00,,,0.00,Wunderground v.1.13,2013-04-15 03:31:00,
2013-04-14 20:36:00,57.7,53.2,29.90,ENE,66,0.0,0.0,85,0.00,,,0.00,Wunderground v.1.13,2013-04-15 03:36:00,
2013-04-14 20:41:00,57.6,53.1,29.90,ENE,66,0.0,0.0,85,0.00,,,0.00,Wunderground v.1.13,2013-04-15 03:41:00,
2013-04-14 20:51:00,57.7,53.2,29.90,ENE,66,0.0,0.0,85,0.00,,,0.00,Wunderground v.1.13,2013-04-15 03:51:00,
2013-04-14 20:56:00,57.7,53.2,29.90,ENE,65,0.0,0.0,85,0.00,,,0.00,Wunderground v.1.13,2013-04-15 03:56:00,
2013-04-14 21:01:00,57.8,53.3,29.90,ENE,66,0.0,0.0,85,0.00,,,0.00,Wunderground v.1.13,2013-04-15 04:01:00,
2013-04-14 21:16:00,58.1,53.6,29.91,ENE,66,0.0,0.0,85,0.00,,,0.00,Wunderground v.1.13,2013-04-15 04:16:00,
2013-04-14 21:21:00,58.0,53.5,29.91,ENE,66,0.0,0.0,85,0.00,,,0.00,Wunderground v.1.13,2013-04-15 04:21:00,
2013-04-14 21:26:00,57.9,53.4,29.91,ENE,65,0.0,0.0,85,0.00,,,0.00,Wunderground v.1.13,2013-04-15 04:26:00,
2013-04-14 21:31:00,57.8,53.3,29.91,ENE,66,0.0,0.0,85,0.00,,,0.00,Wunderground v.1.13,2013-04-15 04:31:00,
2013-04-14 21:41:00,57.7,53.5,29.91,ENE,66,0.0,0.0,86,0.00,,,0.00,Wunderground v.1.13,2013-04-15 04:41:00,
2013-04-14 21:51:00,57.6,53.4,29.91,ENE,65,0.0,0.0,86,0.00,,,0.00,Wunderground v.1.13,2013-04-15 04:51:00,
2013-04-14 21:56:00,57.5,53.3,29.91,ENE,65,0.0,0.0,86,0.00,,,0.00,Wunderground v.1.13,2013-04-15 04:56:00,
2013-04-14 22:06:00,57.2,53.0,29.91,ENE,65,0.0,0.0,86,0.00,,,0.00,Wunderground v.1.13,2013-04-15 05:06:00,
2013-04-14 22:11:00,57.2,53.4,29.91,ENE,65,0.0,0.0,87,0.00,,,0.00,Wunderground v.1.13,2013-04-15 05:11:00,
2013-04-14 22:21:00,57.1,53.3,29.91,ENE,65,0.0,0.0,87,0.00,,,0.00,Wunderground v.1.13,2013-04-15 05:21:00,
2013-04-14 22:31:00,57.0,53.2,29.91,ENE,65,0.0,0.0,87,0.00,,,0.00,Wunderground v.1.13,2013-04-15 05:31:00,
2013-04-14 22:41:00,57.1,53.3,29.91,ENE,65,0.0,0.0,87,0.00,,,0.00,Wunderground v.1.13,2013-04-15 05:41:00,
2013-04-14 22:56:00,57.2,53.4,29.91,ENE,65,0.0,0.0,87,0.00,,,0.00,Wunderground v.1.13,2013-04-15 05:56:00,
2013-04-14 23:01:00,57.1,53.3,29.91,ENE,65,0.0,0.0,87,0.00,,,0.00,Wunderground v.1.13,2013-04-15 06:01:00,
2013-04-14 23:11:00,57.2,53.4,29.91,ENE,65,0.0,0.0,87,0.00,,,0.00,Wunderground v.1.13,2013-04-15 06:11:00,
2013-04-14 23:16:00,57.2,53.4,29.91,ENE,65,0.0,0.0,87,0.00,,,0.00,Wunderground v.1.13,2013-04-15 06:16:00,
2013-04-14 23:26:00,57.4,53.6,29.91,ENE,65,0.0,0.0,87,0.00,,,0.00,Wunderground v.1.13,2013-04-15 06:26:00,
2013-04-14 23:36:00,57.2,53.4,29.91,ENE,65,0.0,0.0,87,0.00,,,0.00,Wunderground v.1.13,2013-04-15 06:36:00,